createdAt,value
2018-07-19T00:01:41.222Z,19.77
2018-07-19T00:04:09.850Z,19.86
2018-07-19T00:06:38.499Z,19.80
2018-07-19T00:09:08.932Z,19.55
2018-07-19T00:11:37.870Z,19.45
2018-07-19T00:14:06.594Z,19.52
2018-07-19T00:16:35.271Z,19.50
2018-07-19T00:19:04.001Z,19.51
2018-07-19T00:21:32.591Z,19.50
2018-07-19T00:24:01.242Z,19.51
2018-07-19T00:26:29.969Z,19.56
2018-07-19T00:28:58.630Z,19.68
2018-07-19T00:31:27.272Z,19.70
2018-07-19T00:33:55.964Z,19.87
2018-07-19T00:36:24.679Z,19.75
2018-07-19T00:38:53.368Z,19.50
2018-07-19T00:41:22.107Z,19.47
2018-07-19T00:43:50.738Z,19.50
2018-07-19T00:46:19.367Z,19.49
2018-07-19T00:48:48.055Z,19.31
2018-07-19T00:51:16.817Z,19.34
2018-07-19T00:53:45.497Z,19.17
2018-07-19T00:56:14.142Z,19.08
2018-07-19T00:58:42.827Z,18.92
2018-07-19T01:01:11.508Z,18.80
2018-07-19T01:03:40.234Z,18.76
2018-07-19T01:06:08.870Z,18.99
2018-07-19T01:08:37.543Z,18.92
2018-07-19T01:11:06.278Z,18.92
2018-07-19T01:13:34.934Z,18.71
2018-07-19T01:16:03.623Z,18.75
2018-07-19T01:18:32.258Z,18.88
2018-07-19T01:21:00.908Z,18.66
2018-07-19T01:23:29.651Z,18.83
2018-07-19T01:25:58.317Z,19.27
2018-07-19T01:28:26.972Z,19.66
2018-07-19T01:30:55.632Z,19.85
2018-07-19T01:33:24.293Z,20.03
2018-07-19T01:35:52.969Z,20.12
2018-07-19T01:38:21.606Z,20.18
2018-07-19T01:40:50.588Z,20.20
2018-07-19T01:43:19.255Z,20.22
2018-07-19T01:45:47.946Z,20.23
2018-07-19T01:48:16.594Z,20.26
2018-07-19T01:50:45.270Z,20.27
2018-07-19T01:53:13.946Z,20.28
2018-07-19T01:55:42.610Z,20.21
2018-07-19T01:58:11.285Z,20.24
2018-07-19T02:00:40.019Z,20.24
2018-07-19T02:03:08.687Z,20.29
2018-07-19T02:05:37.331Z,20.32
2018-07-19T02:08:06.063Z,20.32
2018-07-19T02:10:34.790Z,20.32
2018-07-19T02:13:03.424Z,20.31
2018-07-19T02:15:32.136Z,20.30
2018-07-19T02:18:00.845Z,20.27
2018-07-19T02:20:29.511Z,20.22
2018-07-19T02:22:58.234Z,20.25
2018-07-19T02:25:26.866Z,20.23
2018-07-19T02:27:55.547Z,20.25
2018-07-19T02:30:24.219Z,20.20
2018-07-19T02:32:52.870Z,20.19
2018-07-19T02:35:21.519Z,20.18
2018-07-19T02:37:50.160Z,20.20
2018-07-19T02:40:18.822Z,20.13
2018-07-19T02:42:47.483Z,20.08
2018-07-19T02:45:16.446Z,19.91
2018-07-19T02:47:45.111Z,19.59
2018-07-19T02:50:13.775Z,19.36
2018-07-19T02:52:42.419Z,19.31
2018-07-19T02:55:11.115Z,19.29
2018-07-19T02:57:39.789Z,19.26
2018-07-19T03:00:08.496Z,19.29
2018-07-19T03:02:37.176Z,19.25
2018-07-19T03:05:05.920Z,19.19
2018-07-19T03:07:34.667Z,19.18
2018-07-19T03:10:03.399Z,19.10
2018-07-19T03:12:32.079Z,19.04
2018-07-19T03:15:00.723Z,18.99
2018-07-19T03:17:29.401Z,18.93
2018-07-19T03:19:58.027Z,18.90
2018-07-19T03:22:26.706Z,18.78
2018-07-19T03:24:55.338Z,18.76
2018-07-19T03:27:23.988Z,18.74
2018-07-19T03:29:52.614Z,18.68
2018-07-19T03:32:21.275Z,18.62
2018-07-19T03:34:49.942Z,18.62
2018-07-19T03:37:18.683Z,18.58
2018-07-19T03:39:47.367Z,18.47
2018-07-19T03:42:16.094Z,18.41
2018-07-19T03:44:44.876Z,18.40
2018-07-19T03:47:13.626Z,18.35
2018-07-19T03:49:42.267Z,18.30
2018-07-19T03:52:10.955Z,18.28
2018-07-19T03:54:39.638Z,18.40
2018-07-19T03:57:08.379Z,18.44
2018-07-19T03:59:37.026Z,18.46
2018-07-19T04:02:05.690Z,18.23
2018-07-19T04:04:34.363Z,18.43
2018-07-19T04:07:03.051Z,18.41
2018-07-19T04:09:31.814Z,18.40
2018-07-19T04:12:00.487Z,18.34
2018-07-19T04:14:29.185Z,18.28
2018-07-19T04:16:57.838Z,18.25
2018-07-19T04:19:26.575Z,18.28
2018-07-19T04:21:55.219Z,18.28
2018-07-19T04:24:23.870Z,18.30
2018-07-19T04:26:52.550Z,18.30
2018-07-19T04:29:22.410Z,18.30
2018-07-19T04:31:51.178Z,18.31
2018-07-19T04:34:20.005Z,18.34
2018-07-19T04:36:48.735Z,18.37
2018-07-19T04:39:17.379Z,18.35
2018-07-19T04:41:46.003Z,18.37
2018-07-19T04:44:14.642Z,18.36
2018-07-19T04:46:43.379Z,18.35
2018-07-19T04:49:12.032Z,18.34
2018-07-19T04:51:40.674Z,18.33
2018-07-19T04:54:09.389Z,18.31
2018-07-19T04:56:38.043Z,18.30
2018-07-19T04:59:06.701Z,18.23
2018-07-19T05:01:35.351Z,18.23
2018-07-19T05:04:04.135Z,18.28
2018-07-19T05:06:32.792Z,18.24
2018-07-19T05:09:01.467Z,18.28
2018-07-19T05:11:30.091Z,18.23
2018-07-19T05:13:58.733Z,18.32
2018-07-19T05:16:27.387Z,18.26
2018-07-19T05:18:56.081Z,18.26
2018-07-19T05:21:24.767Z,18.30
2018-07-19T05:23:53.468Z,18.36
2018-07-19T05:26:22.112Z,18.39
2018-07-19T05:28:50.802Z,18.46
2018-07-19T05:31:19.498Z,18.44
2018-07-19T05:33:48.146Z,18.41
2018-07-19T05:36:16.852Z,18.41
2018-07-19T05:38:45.514Z,18.44
2018-07-19T05:41:14.163Z,18.45
2018-07-19T05:43:42.789Z,18.44
2018-07-19T05:46:11.485Z,18.46
2018-07-19T05:48:40.140Z,18.50
2018-07-19T05:51:09.264Z,18.49
2018-07-19T05:53:37.888Z,18.54
2018-07-19T05:56:06.650Z,18.52
2018-07-19T05:58:35.328Z,18.47
2018-07-19T06:01:04.036Z,18.46
2018-07-19T06:03:32.801Z,18.47
2018-07-19T06:06:01.484Z,18.43
2018-07-19T06:08:30.147Z,18.45
2018-07-19T06:10:58.846Z,18.50
2018-07-19T06:13:27.531Z,18.51
2018-07-19T06:15:56.176Z,18.50
2018-07-19T06:18:24.869Z,18.47
2018-07-19T06:20:53.529Z,18.47
2018-07-19T06:23:22.178Z,18.52
2018-07-19T06:25:50.874Z,18.56
2018-07-19T06:28:19.536Z,18.53
2018-07-19T06:30:48.181Z,18.53
2018-07-19T06:33:16.929Z,18.54
2018-07-19T06:35:45.569Z,18.50
2018-07-19T06:38:14.220Z,18.45
2018-07-19T06:40:42.933Z,18.46
2018-07-19T06:43:11.706Z,18.54
2018-07-19T06:45:40.671Z,18.57
2018-07-19T06:48:09.349Z,18.60
2018-07-19T06:50:38.039Z,17.69
2018-07-19T06:53:07.067Z,18.75
2018-07-19T06:55:36.219Z,18.76
2018-07-19T06:58:05.139Z,18.88
2018-07-19T07:00:33.789Z,18.84
2018-07-19T07:03:02.462Z,18.89
2018-07-19T07:05:31.091Z,18.93
2018-07-19T07:07:59.747Z,19.00
2018-07-19T07:10:28.383Z,19.01
2018-07-19T07:12:57.039Z,19.03
2018-07-19T07:15:25.771Z,18.79
2018-07-19T07:17:54.451Z,18.99
2018-07-19T07:20:23.070Z,18.97
2018-07-19T07:22:51.743Z,18.92
2018-07-19T07:25:20.372Z,19.18
2018-07-19T07:27:49.047Z,19.24
2018-07-19T07:30:17.743Z,19.35
2018-07-19T07:32:46.396Z,19.43
2018-07-19T07:35:15.063Z,19.41
2018-07-19T07:37:43.696Z,19.44
2018-07-19T07:40:12.386Z,19.52
2018-07-19T07:42:41.048Z,19.68
2018-07-19T07:45:09.721Z,19.82
2018-07-19T07:47:38.370Z,20.09
2018-07-19T07:50:07.045Z,20.18
2018-07-19T07:52:35.686Z,20.19
2018-07-19T07:55:04.699Z,20.24
2018-07-19T07:57:33.390Z,20.52
2018-07-19T08:00:02.060Z,20.58
2018-07-19T08:02:30.783Z,20.48
2018-07-19T08:04:59.443Z,20.22
2018-07-19T08:07:28.093Z,20.09
2018-07-19T08:09:56.753Z,20.31
2018-07-19T08:12:25.413Z,20.41
2018-07-19T08:14:54.090Z,20.31
2018-07-19T08:17:22.866Z,20.19
2018-07-19T08:19:51.551Z,20.00
2018-07-19T08:22:20.278Z,19.85
2018-07-19T08:24:48.938Z,19.82
2018-07-19T08:27:17.614Z,19.74
2018-07-19T08:29:46.223Z,19.55
2018-07-19T08:32:14.896Z,19.56
2018-07-19T08:34:43.557Z,19.50
2018-07-19T08:37:12.217Z,19.57
2018-07-19T08:39:40.961Z,19.65
2018-07-19T08:42:09.648Z,19.76
2018-07-19T08:44:38.377Z,19.70
2018-07-19T08:47:07.220Z,19.52
2018-07-19T08:49:35.841Z,19.46
2018-07-19T08:52:04.498Z,19.55
2018-07-19T08:54:33.154Z,19.62
2018-07-19T08:57:01.806Z,19.69
2018-07-19T08:59:30.440Z,19.80
2018-07-19T09:01:59.080Z,19.92
2018-07-19T09:04:27.802Z,19.87
2018-07-19T09:06:56.450Z,19.88
2018-07-19T09:09:25.133Z,20.01
2018-07-19T09:11:53.862Z,20.24
2018-07-19T09:14:22.635Z,20.24
2018-07-19T09:16:51.865Z,20.07
2018-07-19T09:19:20.569Z,20.25
2018-07-19T09:21:49.259Z,20.60
2018-07-19T09:24:17.847Z,20.75
2018-07-19T09:26:46.506Z,20.99
2018-07-19T09:29:15.139Z,20.90
2018-07-19T09:31:43.834Z,21.07
2018-07-19T09:34:12.499Z,20.86
2018-07-19T09:36:41.251Z,21.16
2018-07-19T09:39:12.002Z,21.02
2018-07-19T09:41:41.366Z,21.28
2018-07-19T09:44:10.045Z,21.48
2018-07-19T09:46:38.867Z,21.34
2018-07-19T09:49:07.568Z,21.37
2018-07-19T09:51:36.307Z,21.13
2018-07-19T09:54:05.026Z,20.98
2018-07-19T09:56:33.724Z,21.40
2018-07-19T09:59:02.477Z,21.55
2018-07-19T10:01:31.146Z,21.48
2018-07-19T10:03:59.773Z,22.42
2018-07-19T10:06:43.199Z,22.30
2018-07-19T10:09:11.929Z,22.13
2018-07-19T10:11:40.618Z,21.71
2018-07-19T10:14:09.361Z,21.21
2018-07-19T10:16:38.108Z,20.93
2018-07-19T10:19:06.951Z,20.74
2018-07-19T10:21:35.801Z,20.47
2018-07-19T10:24:04.584Z,20.32
2018-07-19T10:26:33.320Z,20.34
2018-07-19T10:29:01.965Z,20.28
2018-07-19T10:31:30.627Z,20.20
2018-07-19T10:33:59.283Z,20.18
2018-07-19T10:36:27.967Z,20.16
2018-07-19T10:38:56.675Z,20.16
2018-07-19T10:41:25.363Z,20.27
2018-07-19T10:43:54.315Z,20.28
2018-07-19T10:46:22.989Z,20.24
2018-07-19T10:48:51.688Z,20.14
2018-07-19T10:51:20.304Z,20.09
2018-07-19T10:53:48.940Z,19.95
2018-07-19T10:56:17.619Z,19.89
2018-07-19T10:58:46.429Z,19.85
2018-07-19T11:01:15.067Z,19.82
2018-07-19T11:03:43.804Z,19.91
2018-07-19T11:06:12.439Z,20.02
2018-07-19T11:08:41.060Z,20.05
2018-07-19T11:11:09.744Z,20.19
2018-07-19T11:13:39.294Z,20.28
2018-07-19T11:16:07.993Z,20.40
2018-07-19T11:18:36.640Z,20.36
2018-07-19T11:21:05.305Z,20.35
2018-07-19T11:23:33.963Z,20.48
2018-07-19T11:26:02.731Z,20.59
2018-07-19T11:28:31.366Z,20.66
2018-07-19T11:31:00.031Z,20.69
2018-07-19T11:33:28.708Z,20.55
2018-07-19T11:35:57.382Z,20.67
2018-07-19T11:38:26.004Z,20.90
2018-07-19T11:40:54.633Z,20.91
2018-07-19T11:43:23.323Z,20.88
2018-07-19T11:45:51.992Z,20.86
2018-07-19T11:48:21.383Z,20.93
2018-07-19T11:50:50.077Z,20.97
2018-07-19T11:53:18.740Z,20.89
2018-07-19T11:55:47.428Z,20.82
2018-07-19T11:58:16.088Z,20.75
2018-07-19T12:00:44.744Z,20.75
2018-07-19T12:03:13.454Z,20.74
2018-07-19T12:05:42.117Z,20.89
2018-07-19T12:08:10.888Z,20.86
2018-07-19T12:10:40.300Z,20.84
2018-07-19T12:13:09.076Z,20.85
2018-07-19T12:15:37.700Z,20.89
2018-07-19T12:18:06.358Z,20.91
2018-07-19T12:20:35.088Z,21.02
2018-07-19T12:23:03.705Z,20.97
2018-07-19T12:25:32.341Z,20.84
2018-07-19T12:28:00.974Z,20.81
2018-07-19T12:30:29.631Z,20.99
2018-07-19T12:32:58.318Z,20.91
2018-07-19T12:35:26.971Z,20.84
2018-07-19T12:37:55.618Z,20.67
2018-07-19T12:40:24.264Z,20.67
2018-07-19T12:42:53.137Z,20.54
2018-07-19T12:45:21.891Z,20.52
2018-07-19T12:47:50.575Z,20.52
2018-07-19T12:50:19.252Z,20.57
2018-07-19T12:52:48.001Z,20.53
2018-07-19T12:55:16.728Z,20.48
2018-07-19T12:57:45.417Z,20.51
2018-07-19T13:00:14.275Z,20.47
2018-07-19T13:02:42.906Z,20.46
2018-07-19T13:05:11.505Z,20.43
2018-07-19T13:07:40.205Z,20.36
2018-07-19T13:10:08.953Z,20.37
2018-07-19T13:12:37.617Z,20.44
2018-07-19T13:15:07.011Z,20.47
2018-07-19T13:17:35.641Z,20.50
2018-07-19T13:20:04.806Z,20.50
2018-07-19T13:22:33.540Z,20.55
2018-07-19T13:25:02.313Z,20.47
2018-07-19T13:27:31.932Z,20.36
2018-07-19T13:30:00.594Z,20.27
2018-07-19T13:32:29.249Z,20.23
2018-07-19T13:34:57.954Z,20.22
2018-07-19T13:37:26.748Z,20.21
2018-07-19T13:39:55.492Z,20.18
2018-07-19T13:42:24.127Z,20.11
2018-07-19T13:44:52.763Z,20.02
2018-07-19T13:47:21.450Z,20.10
2018-07-19T13:49:50.096Z,20.06
2018-07-19T13:52:24.822Z,20.10
2018-07-19T13:54:53.456Z,20.14
2018-07-19T13:57:22.117Z,20.10
2018-07-19T13:59:50.862Z,20.04
2018-07-19T14:02:19.528Z,19.97
2018-07-19T14:04:48.233Z,19.92
2018-07-19T14:07:16.922Z,19.95
2018-07-19T14:09:46.119Z,19.94
2018-07-19T14:12:14.769Z,19.96
2018-07-19T14:14:43.491Z,19.88
2018-07-19T14:17:12.263Z,19.84
2018-07-19T14:19:41.017Z,19.88
2018-07-19T14:22:09.704Z,19.86
2018-07-19T14:24:38.376Z,19.86
2018-07-19T14:27:07.244Z,19.84
2018-07-19T14:29:35.990Z,19.81
2018-07-19T14:32:04.748Z,19.77
2018-07-19T14:34:34.537Z,19.84
2018-07-19T14:37:03.208Z,19.93
2018-07-19T14:39:31.975Z,19.92
2018-07-19T14:42:00.686Z,20.01
2018-07-19T14:44:29.345Z,19.96
2018-07-19T14:46:58.083Z,19.93
2018-07-19T14:49:26.736Z,19.88
2018-07-19T14:51:55.383Z,19.86
2018-07-19T14:54:24.108Z,19.82
2018-07-19T14:56:52.772Z,19.74
2018-07-19T14:59:21.508Z,19.75
2018-07-19T15:01:50.182Z,19.80
2018-07-19T15:04:18.870Z,19.82
2018-07-19T15:06:47.648Z,19.84
2018-07-19T15:09:16.321Z,19.85
2018-07-19T15:11:45.041Z,19.81
2018-07-19T15:14:13.749Z,19.76
2018-07-19T15:16:42.462Z,19.74
2018-07-19T15:19:11.125Z,19.68
2018-07-19T15:21:39.745Z,19.68
2018-07-19T15:24:08.444Z,19.71
2018-07-19T15:26:37.117Z,19.72
2018-07-19T15:29:05.778Z,19.47
2018-07-19T15:31:34.438Z,19.68
2018-07-19T15:34:03.187Z,19.63
2018-07-19T15:36:31.875Z,19.61
2018-07-19T15:39:00.549Z,19.65
2018-07-19T15:41:29.246Z,19.57
2018-07-19T15:43:57.948Z,19.52
2018-07-19T15:46:26.580Z,19.39
2018-07-19T15:48:55.279Z,19.36
2018-07-19T15:51:23.921Z,19.28
2018-07-19T15:53:52.816Z,19.27
2018-07-19T15:56:21.540Z,19.22
2018-07-19T15:58:50.201Z,19.17
2018-07-19T16:01:19.014Z,19.20
2018-07-19T16:03:47.656Z,19.17
2018-07-19T16:06:16.403Z,19.12
2018-07-19T16:08:45.073Z,19.13
2018-07-19T16:11:13.728Z,19.15
2018-07-19T16:13:42.415Z,19.22
2018-07-19T16:16:11.153Z,19.23
2018-07-19T16:18:39.833Z,19.23
2018-07-19T16:21:08.509Z,19.23
2018-07-19T16:23:37.145Z,19.19
2018-07-19T16:26:05.921Z,19.21
2018-07-19T16:28:34.629Z,19.21
2018-07-19T16:31:03.259Z,19.23
2018-07-19T16:33:31.909Z,19.23
2018-07-19T16:36:00.574Z,19.22
2018-07-19T16:38:29.302Z,19.20
2018-07-19T16:40:57.991Z,19.18
2018-07-19T16:43:26.686Z,19.18
2018-07-19T16:45:55.325Z,19.20
2018-07-19T16:48:24.085Z,19.23
2018-07-19T16:50:52.735Z,19.22
2018-07-19T16:53:21.348Z,19.15
2018-07-19T16:55:49.982Z,19.14
2018-07-19T16:58:18.732Z,19.15
2018-07-19T17:00:47.390Z,19.13
2018-07-19T17:03:16.079Z,19.10
2018-07-19T17:05:44.838Z,19.12
2018-07-19T17:08:13.464Z,19.15
2018-07-19T17:10:42.112Z,19.13
2018-07-19T17:13:10.845Z,19.12
2018-07-19T17:15:39.493Z,19.09
2018-07-19T17:18:08.237Z,19.09
2018-07-19T17:20:36.950Z,19.09
2018-07-19T17:23:05.720Z,19.04
2018-07-19T17:25:34.366Z,19.05
2018-07-19T17:28:03.110Z,19.06
2018-07-19T17:30:32.394Z,19.04
2018-07-19T17:33:01.014Z,19.02
2018-07-19T17:35:29.738Z,18.99
2018-07-19T17:37:58.533Z,18.98
2018-07-19T17:40:27.417Z,18.96
2018-07-19T17:42:56.297Z,18.96
2018-07-19T17:45:25.057Z,18.99
2018-07-19T17:47:53.666Z,19.01
2018-07-19T17:50:22.408Z,19.00
2018-07-19T17:52:51.072Z,18.98
2018-07-19T17:55:19.718Z,18.95
2018-07-19T17:57:48.352Z,18.92
2018-07-19T18:00:17.030Z,18.94
2018-07-19T18:02:45.682Z,18.94
2018-07-19T18:05:14.356Z,18.94
2018-07-19T18:07:43.056Z,18.94
2018-07-19T18:10:12.154Z,18.95
2018-07-19T18:12:40.781Z,19.01
2018-07-19T18:15:09.531Z,19.00
2018-07-19T18:17:38.204Z,19.03
2018-07-19T18:20:07.413Z,18.97
2018-07-19T18:22:36.124Z,18.98
2018-07-19T18:25:05.295Z,19.02
2018-07-19T18:27:34.069Z,18.99
2018-07-19T18:30:06.010Z,19.03
2018-07-19T18:32:34.635Z,19.04
2018-07-19T18:35:03.461Z,19.01
2018-07-19T18:37:32.079Z,19.03
2018-07-19T18:40:00.787Z,19.04
2018-07-19T18:42:29.552Z,19.06
2018-07-19T18:44:58.255Z,19.06
2018-07-19T18:47:26.952Z,19.02
2018-07-19T18:49:55.631Z,19.05
2018-07-19T18:52:24.282Z,19.02
2018-07-19T18:54:52.935Z,18.99
2018-07-19T18:57:21.577Z,18.99
2018-07-19T18:59:50.267Z,18.98
2018-07-19T19:02:18.955Z,19.01
2018-07-19T19:04:47.645Z,19.00
2018-07-19T19:07:16.364Z,19.04
2018-07-19T19:09:45.025Z,19.06
2018-07-19T19:12:13.833Z,19.06
2018-07-19T19:14:42.518Z,19.08
2018-07-19T19:17:11.225Z,19.10
2018-07-19T19:19:39.950Z,19.09
2018-07-19T19:22:08.592Z,19.11
2018-07-19T19:24:37.234Z,19.09
2018-07-19T19:27:06.356Z,19.11
2018-07-19T19:29:34.987Z,19.11
2018-07-19T19:32:03.757Z,19.11
2018-07-19T19:34:32.386Z,19.12
2018-07-19T19:37:01.077Z,19.13
2018-07-19T19:39:29.798Z,19.14
2018-07-19T19:41:58.538Z,19.20
2018-07-19T19:44:27.198Z,19.20
2018-07-19T19:46:55.848Z,19.23
2018-07-19T19:49:24.554Z,19.22
2018-07-19T19:51:53.237Z,19.20
2018-07-19T19:54:21.924Z,19.20
2018-07-19T19:56:50.602Z,19.24
2018-07-19T19:59:19.253Z,19.31
2018-07-19T20:01:47.913Z,19.30
2018-07-19T20:04:16.602Z,19.31
2018-07-19T20:06:45.267Z,19.32
2018-07-19T20:09:13.885Z,19.38
2018-07-19T20:11:42.595Z,19.32
2018-07-19T20:14:11.221Z,19.37
2018-07-19T20:16:39.963Z,19.36
2018-07-19T20:19:08.604Z,19.39
2018-07-19T20:21:37.266Z,19.39
2018-07-19T20:24:05.926Z,19.39
2018-07-19T20:26:34.672Z,19.43
2018-07-19T20:29:03.386Z,19.44
2018-07-19T20:31:32.030Z,19.44
2018-07-19T20:34:00.660Z,19.45
2018-07-19T20:36:29.339Z,19.42
2018-07-19T20:38:58.335Z,19.42
2018-07-19T20:41:26.993Z,19.44
2018-07-19T20:43:55.621Z,19.47
2018-07-19T20:46:24.329Z,19.48
2018-07-19T20:48:53.065Z,19.52
2018-07-19T20:51:21.706Z,19.53
2018-07-19T20:53:50.434Z,19.53
2018-07-19T20:56:19.339Z,19.52
2018-07-19T20:58:48.036Z,19.52
2018-07-19T21:01:16.763Z,19.56
2018-07-19T21:03:45.386Z,19.53
2018-07-19T21:06:14.036Z,19.51
2018-07-19T21:08:42.646Z,19.52
2018-07-19T21:11:11.266Z,19.48
2018-07-19T21:13:39.894Z,19.49
2018-07-19T21:16:08.745Z,19.50
2018-07-19T21:18:37.378Z,19.53
2018-07-19T21:21:06.095Z,19.53
2018-07-19T21:23:35.076Z,19.52
2018-07-19T21:26:03.825Z,19.50
2018-07-19T21:28:32.418Z,19.48
2018-07-19T21:31:01.056Z,19.43
2018-07-19T21:33:29.699Z,19.42
2018-07-19T21:35:58.394Z,19.38
2018-07-19T21:38:27.058Z,19.32
2018-07-19T21:40:55.709Z,19.30
2018-07-19T21:43:24.327Z,19.24
2018-07-19T21:45:52.970Z,19.23
2018-07-19T21:48:21.619Z,19.26
2018-07-19T21:50:50.250Z,19.25
2018-07-19T21:53:18.915Z,19.29
2018-07-19T21:55:47.550Z,19.31
2018-07-19T21:58:16.226Z,19.28
2018-07-19T22:00:50.013Z,19.30
2018-07-19T22:03:18.734Z,19.32
2018-07-19T22:05:47.366Z,19.35
2018-07-19T22:08:16.039Z,19.39
2018-07-19T22:10:44.670Z,19.40
2018-07-19T22:13:13.312Z,19.43
2018-07-19T22:15:42.017Z,19.43
2018-07-19T22:18:10.641Z,19.40
2018-07-19T22:20:39.340Z,19.36
2018-07-19T22:23:08.032Z,19.37
2018-07-19T22:25:36.867Z,19.34
2018-07-19T22:28:05.748Z,19.34
2018-07-19T22:30:34.540Z,19.36
2018-07-19T22:33:03.302Z,19.39
2018-07-19T22:35:32.852Z,19.43
2018-07-19T22:38:01.507Z,19.45
2018-07-19T22:40:30.204Z,19.45
2018-07-19T22:42:58.828Z,19.38
2018-07-19T22:45:27.529Z,19.38
2018-07-19T22:47:56.207Z,19.33
2018-07-19T22:50:24.815Z,19.27
2018-07-19T22:52:53.606Z,19.25
2018-07-19T22:55:22.190Z,19.25
2018-07-19T22:57:50.833Z,19.20
2018-07-19T23:00:19.538Z,19.18
2018-07-19T23:02:48.175Z,19.16
2018-07-19T23:05:16.855Z,19.14
2018-07-19T23:07:45.506Z,19.15
2018-07-19T23:10:14.225Z,19.16
2018-07-19T23:12:42.875Z,19.19
2018-07-19T23:15:11.503Z,19.18
2018-07-19T23:17:40.107Z,19.17
2018-07-19T23:20:08.839Z,19.15
2018-07-19T23:22:37.482Z,19.20
2018-07-19T23:25:06.143Z,19.23
2018-07-19T23:27:34.835Z,19.22
2018-07-19T23:30:05.271Z,19.24
2018-07-19T23:32:33.994Z,19.19
2018-07-19T23:35:02.717Z,19.18
2018-07-19T23:37:34.619Z,19.16
2018-07-19T23:40:09.405Z,19.14
2018-07-19T23:42:42.897Z,19.11
2018-07-19T23:45:16.844Z,19.10
2018-07-19T23:47:45.936Z,19.09
2018-07-19T23:50:14.602Z,19.06
2018-07-19T23:52:43.257Z,19.12
2018-07-19T23:55:11.874Z,19.07
2018-07-19T23:57:40.488Z,19.12
